This is the latest recevied weather packets stored in our database for station/object K7FRY. If no packets are shown the sender has not sent any weather packets the latest 10 day(s).
| Time | Temp. | Humidity | Pressure | Rain* | Wind** | Luminosity | Snow |
|---|---|---|---|---|---|---|---|
| 1777854076 | 32.22° C | 26% | 1010.7 hPa | 0 mm | - | 241 W/m² | - |
| 1777853774 | 31.67° C | 27% | 1010.8 hPa | 0 mm | - | 274 W/m² | - |
| 1777853469 | 31.11° C | 27% | 1010.6 hPa | 0 mm | - | 303 W/m² | - |
| 1777853167 | 31.11° C | 26% | 1010.7 hPa | 0 mm | - | 321 W/m² | - |
| 1777852864 | 31.11° C | 27% | 1010.6 hPa | 0 mm | - | 337 W/m² | - |
| 1777852563 | 31.11° C | 27% | 1010.7 hPa | 0 mm | - | 359 W/m² | - |
| 1777852259 | 31.11° C | 27% | 1010.7 hPa | 0 mm | - | 356 W/m² | - |
| 1777851957 | 30.56° C | 27% | 1010.3 hPa | 0 mm | - | 356 W/m² | - |
| 1777851655 | 31.11° C | 27% | 1010.8 hPa | 0 mm | - | 285 W/m² | - |
| 1777851351 | 30.56° C | 27% | 1010.7 hPa | 0 mm | - | 456 W/m² | - |
| 1777851047 | 31.67° C | 27% | 1011 hPa | 0 mm | - | 204 W/m² | - |
| 1777850744 | 31.67° C | 27% | 1011 hPa | 0 mm | - | 540 W/m² | - |
| 1777850442 | 31.11° C | 25% | 1011 hPa | 0 mm | - | 502 W/m² | - |
| 1777850139 | 30.56° C | 26% | 1011 hPa | 0 mm | - | 231 W/m² | - |
| 1777849836 | 31.11° C | 26% | 1011.3 hPa | 0 mm | - | 219 W/m² | - |
| 1777849532 | 31.11° C | 24% | 1011 hPa | 0 mm | - | 327 W/m² | - |
| 1777849230 | 30.56° C | 24% | 1011.2 hPa | 0 mm | - | 269 W/m² | - |
| 1777848927 | 31.11° C | 24% | 1011.5 hPa | 0 mm | - | 315 W/m² | - |
| 1777848622 | 31.11° C | 24% | 1011.3 hPa | 0 mm | - | 281 W/m² | - |
| 1777848320 | 30.56° C | 26% | 1011.5 hPa | 0 mm | - | 321 W/m² | - |
| 1777848017 | 31.11° C | 25% | 1011.8 hPa | 0 mm | - | 295 W/m² | - |
| 1777847715 | 31.11° C | 25% | 1011.8 hPa | 0 mm | - | 330 W/m² | - |
| 1777847410 | 30.56° C | 26% | 1011.8 hPa | 0 mm | - | 291 W/m² | - |
| 1777847109 | 30.56° C | 25% | 1011.9 hPa | 0 mm | - | 256 W/m² | - |
| 1777846806 | 30.56° C | 26% | 1011.9 hPa | 0 mm | - | 241 W/m² | - |
* Rain latest hour (hover to see other rain measurements)
** Current wind speed in m/s (hover to see current wind gust speed)